createdAt,value
2019-01-17T00:00:58.763Z,996.05
2019-01-17T00:01:58.764Z,996.10
2019-01-17T00:02:58.793Z,996.10
2019-01-17T00:03:58.796Z,996.08
2019-01-17T00:04:58.812Z,996.11
2019-01-17T00:05:58.821Z,996.13
2019-01-17T00:06:58.866Z,996.12
2019-01-17T00:07:58.865Z,996.16
2019-01-17T00:08:58.862Z,996.16
2019-01-17T00:09:58.952Z,996.16
2019-01-17T00:10:58.892Z,996.13
2019-01-17T00:11:58.910Z,996.14
2019-01-17T00:12:58.921Z,996.21
2019-01-17T00:13:58.942Z,996.16
2019-01-17T00:14:58.959Z,996.17
2019-01-17T00:15:58.972Z,996.17
2019-01-17T00:16:58.982Z,996.16
2019-01-17T00:17:58.990Z,996.23
2019-01-17T00:18:59.014Z,996.19
2019-01-17T00:19:59.020Z,996.21
2019-01-17T00:20:59.037Z,996.21
2019-01-17T00:21:59.073Z,996.21
2019-01-17T00:22:59.067Z,996.24
2019-01-17T00:24:02.619Z,996.24
2019-01-17T00:24:59.109Z,996.23
2019-01-17T00:25:59.119Z,996.29
2019-01-17T00:26:59.124Z,996.29
2019-01-17T00:27:59.138Z,996.27
2019-01-17T00:28:59.149Z,996.38
2019-01-17T00:29:59.163Z,996.27
2019-01-17T00:30:59.188Z,996.32
2019-01-17T00:31:59.233Z,996.30
2019-01-17T00:32:59.215Z,996.32
2019-01-17T00:33:59.221Z,996.35
2019-01-17T00:34:59.261Z,996.37
2019-01-17T00:35:59.248Z,996.37
2019-01-17T00:36:59.268Z,996.35
2019-01-17T00:37:59.280Z,996.41
2019-01-17T00:38:59.335Z,996.38
2019-01-17T00:39:59.304Z,996.36
2019-01-17T00:40:59.324Z,996.32
2019-01-17T00:41:59.350Z,996.35
2019-01-17T00:42:59.358Z,996.39
2019-01-17T00:43:59.399Z,996.42
2019-01-17T00:44:59.481Z,996.37
2019-01-17T00:45:59.397Z,996.38
2019-01-17T00:46:59.414Z,996.37
2019-01-17T00:47:59.426Z,996.38
2019-01-17T00:48:59.440Z,996.42
2019-01-17T00:49:59.452Z,996.35
2019-01-17T00:50:59.471Z,996.39
2019-01-17T00:51:59.494Z,996.34
2019-01-17T00:52:59.490Z,996.46
2019-01-17T00:53:59.516Z,996.38
2019-01-17T00:54:59.653Z,996.50
2019-01-17T00:55:59.534Z,996.35
2019-01-17T00:56:59.551Z,996.36
2019-01-17T00:57:59.577Z,996.40
2019-01-17T00:58:59.587Z,996.44
2019-01-17T00:59:59.601Z,996.38
2019-01-17T01:00:59.607Z,996.41
2019-01-17T01:01:59.659Z,996.40
2019-01-17T01:02:59.651Z,996.39
2019-01-17T01:03:59.668Z,996.44
2019-01-17T01:05:59.692Z,996.48
2019-01-17T01:06:59.721Z,996.45
2019-01-17T01:07:59.746Z,996.43
2019-01-17T01:08:59.740Z,996.43
2019-01-17T01:09:59.755Z,996.41
2019-01-17T01:10:59.753Z,996.40
2019-01-17T01:11:59.785Z,996.43
2019-01-17T01:12:59.792Z,996.40
2019-01-17T01:13:59.803Z,996.40
2019-01-17T01:15:59.829Z,996.33
2019-01-17T01:16:59.913Z,996.35
2019-01-17T01:17:59.880Z,996.33
2019-01-17T01:19:59.895Z,996.26
2019-01-17T01:20:59.902Z,996.35
2019-01-17T01:21:59.921Z,996.32
2019-01-17T01:22:59.932Z,996.32
2019-01-17T01:24:59.972Z,996.32
2019-01-17T01:25:59.970Z,996.31
2019-01-17T01:27:00.067Z,996.35
2019-01-17T01:28:00.003Z,996.36
2019-01-17T01:29:00.051Z,996.34
2019-01-17T01:30:00.032Z,996.32
2019-01-17T01:31:00.061Z,996.29
2019-01-17T01:32:00.089Z,996.34
2019-01-17T01:33:00.078Z,996.37
2019-01-17T01:34:00.090Z,996.36
2019-01-17T01:35:00.166Z,996.34
2019-01-17T01:36:00.123Z,996.33
2019-01-17T01:37:00.272Z,996.33
2019-01-17T01:38:00.149Z,996.38
2019-01-17T01:39:00.167Z,996.34
2019-01-17T01:40:00.238Z,996.33
2019-01-17T01:42:00.210Z,996.32
2019-01-17T01:43:00.228Z,996.27
2019-01-17T01:44:00.234Z,996.27
2019-01-17T01:45:00.249Z,996.28
2019-01-17T01:46:00.276Z,996.31
2019-01-17T01:47:00.287Z,996.24
2019-01-17T01:48:00.296Z,996.27
2019-01-17T01:49:00.320Z,996.24
2019-01-17T01:50:00.333Z,996.28
2019-01-17T01:51:00.336Z,996.22
2019-01-17T01:52:00.360Z,996.25
2019-01-17T01:53:00.384Z,996.23
2019-01-17T01:54:00.386Z,996.26
2019-01-17T01:55:00.418Z,996.20
2019-01-17T01:57:00.608Z,996.19
2019-01-17T01:58:00.448Z,996.11
2019-01-17T01:59:00.468Z,996.10
2019-01-17T02:00:00.475Z,996.09
2019-01-17T02:01:00.489Z,996.09
2019-01-17T02:03:00.520Z,996.09
2019-01-17T02:04:00.529Z,996.04
2019-01-17T02:05:00.552Z,996.02
2019-01-17T02:06:00.559Z,996.09
2019-01-17T02:07:00.585Z,996.07
2019-01-17T02:08:00.585Z,996.07
2019-01-17T02:09:00.610Z,996.12
2019-01-17T02:10:00.615Z,996.17
2019-01-17T02:11:00.632Z,996.13
2019-01-17T02:12:00.749Z,996.10
2019-01-17T02:13:00.658Z,996.09
2019-01-17T02:15:00.711Z,996.09
2019-01-17T02:16:00.703Z,996.12
2019-01-17T02:17:00.722Z,996.05
2019-01-17T02:18:00.740Z,996.07
2019-01-17T02:19:00.756Z,996.08
2019-01-17T02:20:00.760Z,996.07
2019-01-17T02:21:00.787Z,996.07
2019-01-17T02:22:00.898Z,996.10
2019-01-17T02:23:00.837Z,996.12
2019-01-17T02:24:00.829Z,996.12
2019-01-17T02:25:00.842Z,996.10
2019-01-17T02:26:00.883Z,996.12
2019-01-17T02:27:00.878Z,996.10
2019-01-17T02:28:00.905Z,996.09
2019-01-17T02:29:00.899Z,996.10
2019-01-17T02:30:00.920Z,996.15
2019-01-17T02:31:00.928Z,996.06
2019-01-17T02:32:00.992Z,996.10
2019-01-17T02:33:00.958Z,996.09
2019-01-17T02:34:00.980Z,996.06
2019-01-17T02:35:01.012Z,996.07
2019-01-17T02:36:00.994Z,996.03
2019-01-17T02:37:01.015Z,996.07
2019-01-17T02:38:01.040Z,996.02
2019-01-17T02:39:01.038Z,996.02
2019-01-17T02:40:01.077Z,996.02
2019-01-17T02:41:01.073Z,996.00
2019-01-17T02:42:01.184Z,995.97
2019-01-17T02:43:01.123Z,995.91
2019-01-17T02:44:01.129Z,995.90
2019-01-17T02:45:01.140Z,995.91
2019-01-17T02:46:01.144Z,995.89
2019-01-17T02:47:01.162Z,995.90
2019-01-17T02:48:01.180Z,995.88
2019-01-17T02:49:01.185Z,995.86
2019-01-17T02:50:01.207Z,995.88
2019-01-17T02:51:01.222Z,995.87
2019-01-17T02:52:01.328Z,995.88
2019-01-17T02:53:01.248Z,995.90
2019-01-17T02:54:01.271Z,995.85
2019-01-17T02:55:01.293Z,995.79
2019-01-17T02:56:01.307Z,995.78
2019-01-17T02:57:01.367Z,995.82
2019-01-17T02:58:01.347Z,995.81
2019-01-17T02:59:01.377Z,995.79
2019-01-17T03:01:01.379Z,995.81
2019-01-17T03:02:01.398Z,995.78
2019-01-17T03:03:01.394Z,995.75
2019-01-17T03:04:01.423Z,995.78
2019-01-17T03:05:01.437Z,995.76
2019-01-17T03:06:01.444Z,995.73
2019-01-17T03:07:01.517Z,995.73
2019-01-17T03:08:01.482Z,995.71
2019-01-17T03:09:01.494Z,995.69
2019-01-17T03:10:01.501Z,995.74
2019-01-17T03:11:01.539Z,995.67
2019-01-17T03:12:01.546Z,995.68
2019-01-17T03:13:01.543Z,995.68
2019-01-17T03:14:01.568Z,995.72
2019-01-17T03:15:01.572Z,995.71
2019-01-17T03:16:01.587Z,995.67
2019-01-17T03:17:01.695Z,995.68
2019-01-17T03:18:01.618Z,995.64
2019-01-17T03:19:01.644Z,995.65
2019-01-17T03:20:01.649Z,995.64
2019-01-17T03:21:01.658Z,995.61
2019-01-17T03:22:01.674Z,995.63
2019-01-17T03:23:01.697Z,995.67
2019-01-17T03:24:01.715Z,995.58
2019-01-17T03:25:01.723Z,995.58
2019-01-17T03:26:01.734Z,995.61
2019-01-17T03:27:01.803Z,995.60
2019-01-17T03:28:01.762Z,995.57
2019-01-17T03:29:01.786Z,995.56
2019-01-17T03:30:01.793Z,995.56
2019-01-17T03:31:01.814Z,995.59
2019-01-17T03:32:01.836Z,995.56
2019-01-17T03:33:01.854Z,995.56
2019-01-17T03:34:01.880Z,995.44
2019-01-17T03:35:01.880Z,995.42
2019-01-17T03:36:01.881Z,995.36
2019-01-17T03:37:01.984Z,995.47
2019-01-17T03:38:01.910Z,995.39
2019-01-17T03:39:01.926Z,995.38
2019-01-17T03:40:01.949Z,995.44
2019-01-17T03:41:01.954Z,995.36
2019-01-17T03:42:01.967Z,995.33
2019-01-17T03:43:02.014Z,995.33
2019-01-17T03:44:02.030Z,995.35
2019-01-17T03:45:02.014Z,995.27
2019-01-17T03:46:02.028Z,995.22
2019-01-17T03:47:02.046Z,995.20
2019-01-17T03:48:02.069Z,995.26
2019-01-17T03:49:02.091Z,995.20
2019-01-17T03:50:02.098Z,995.25
2019-01-17T03:51:02.107Z,995.18
2019-01-17T03:52:02.143Z,995.14
2019-01-17T03:54:02.164Z,995.13
2019-01-17T03:55:02.161Z,995.15
2019-01-17T03:56:02.179Z,995.13
2019-01-17T03:57:02.203Z,995.10
2019-01-17T03:58:02.199Z,995.03
2019-01-17T03:59:02.229Z,995.11
2019-01-17T04:00:02.248Z,995.08
2019-01-17T04:01:02.248Z,995.05
2019-01-17T04:02:02.324Z,995.07
2019-01-17T04:03:02.273Z,995.07
2019-01-17T04:04:02.296Z,995.08
2019-01-17T04:06:02.323Z,995.03
2019-01-17T04:07:02.334Z,994.99
2019-01-17T04:09:02.412Z,995.01
2019-01-17T04:10:02.378Z,994.96
2019-01-17T04:11:02.391Z,994.98
2019-01-17T04:12:02.441Z,994.90
2019-01-17T04:13:02.445Z,994.86
2019-01-17T04:14:02.443Z,994.89
2019-01-17T04:15:02.449Z,994.85
2019-01-17T04:16:02.465Z,994.79
2019-01-17T04:17:02.498Z,994.81
2019-01-17T04:18:02.496Z,994.83
2019-01-17T04:19:02.616Z,994.87
2019-01-17T04:20:02.532Z,994.77
2019-01-17T04:21:02.543Z,994.75
2019-01-17T04:22:02.604Z,994.75
2019-01-17T04:23:02.577Z,994.73
2019-01-17T04:24:02.586Z,994.73
2019-01-17T04:25:02.624Z,994.73
2019-01-17T04:26:02.642Z,994.68
2019-01-17T04:27:02.625Z,994.76
2019-01-17T04:28:02.654Z,994.72
2019-01-17T04:29:02.657Z,994.74
2019-01-17T04:30:02.679Z,994.73
2019-01-17T04:31:02.709Z,994.69
2019-01-17T04:32:02.738Z,994.72
2019-01-17T04:33:02.719Z,994.65
2019-01-17T04:34:02.728Z,994.65
2019-01-17T04:35:02.743Z,994.66
2019-01-17T04:36:02.774Z,994.56
2019-01-17T04:37:02.814Z,994.56
2019-01-17T04:39:02.800Z,994.54
2019-01-17T04:40:02.826Z,994.57
2019-01-17T04:41:02.829Z,994.55
2019-01-17T04:42:02.848Z,994.56
2019-01-17T04:44:02.893Z,994.48
2019-01-17T04:45:02.906Z,994.50
2019-01-17T04:46:02.902Z,994.46
2019-01-17T04:47:02.925Z,994.48
2019-01-17T04:48:02.963Z,994.47
2019-01-17T04:49:02.952Z,994.47
2019-01-17T04:50:02.965Z,994.43
2019-01-17T04:51:02.980Z,994.43
2019-01-17T04:52:03.001Z,994.40
2019-01-17T04:53:03.004Z,994.41
2019-01-17T04:54:03.098Z,994.39
2019-01-17T04:55:05.520Z,994.41
2019-01-17T04:56:03.071Z,994.33
2019-01-17T04:57:03.103Z,994.29
2019-01-17T04:58:03.100Z,994.29
2019-01-17T04:59:03.123Z,994.29
2019-01-17T05:00:03.125Z,994.25
2019-01-17T05:01:03.171Z,994.29
2019-01-17T05:02:03.163Z,994.21
2019-01-17T05:03:03.159Z,994.19
2019-01-17T05:04:03.288Z,994.20
2019-01-17T05:05:03.183Z,994.24
2019-01-17T05:06:03.278Z,994.15
2019-01-17T05:07:03.222Z,994.12
2019-01-17T05:08:03.235Z,994.11
2019-01-17T05:09:03.246Z,994.11
2019-01-17T05:10:03.264Z,994.15
2019-01-17T05:11:03.279Z,994.13
2019-01-17T05:12:03.291Z,994.10
2019-01-17T05:13:03.305Z,994.14
2019-01-17T05:14:03.471Z,994.15
2019-01-17T05:15:03.331Z,994.19
2019-01-17T05:16:03.344Z,994.15
2019-01-17T05:17:03.367Z,994.17
2019-01-17T05:18:03.403Z,994.14
2019-01-17T05:19:03.394Z,994.13
2019-01-17T05:20:03.410Z,994.08
2019-01-17T05:21:03.418Z,994.11
2019-01-17T05:22:03.440Z,994.03
2019-01-17T05:23:03.459Z,994.08
2019-01-17T05:24:03.636Z,994.18
2019-01-17T05:25:03.481Z,994.02
2019-01-17T05:26:03.494Z,994.15
2019-01-17T05:27:03.506Z,994.04
2019-01-17T05:28:03.522Z,994.08
2019-01-17T05:29:03.560Z,994.03
2019-01-17T05:31:05.101Z,994.09
2019-01-17T05:32:03.594Z,994.02
2019-01-17T05:33:03.639Z,994.00
2019-01-17T05:34:03.636Z,994.02
2019-01-17T05:35:03.642Z,993.99
2019-01-17T05:36:03.641Z,993.97
2019-01-17T05:37:03.657Z,993.95
2019-01-17T05:38:03.695Z,994.06
2019-01-17T05:39:03.733Z,994.00
2019-01-17T05:40:03.714Z,993.92
2019-01-17T05:41:03.721Z,993.98
2019-01-17T05:42:03.736Z,993.93
2019-01-17T05:43:03.747Z,993.97
2019-01-17T05:44:03.763Z,994.04
2019-01-17T05:45:03.776Z,993.99
2019-01-17T05:47:03.806Z,994.04
2019-01-17T05:48:03.821Z,993.93
2019-01-17T05:49:03.851Z,994.06
2019-01-17T05:50:03.855Z,994.15
2019-01-17T05:51:03.874Z,994.01
2019-01-17T05:52:03.878Z,994.02
2019-01-17T05:53:03.893Z,993.92
2019-01-17T05:54:03.915Z,994.01
2019-01-17T05:55:03.941Z,993.94
2019-01-17T05:56:03.940Z,994.01
2019-01-17T05:58:03.970Z,993.97
2019-01-17T06:00:04.012Z,993.91
2019-01-17T06:01:04.021Z,993.96
2019-01-17T06:02:04.026Z,993.90
2019-01-17T06:03:04.045Z,993.90
2019-01-17T06:04:04.055Z,993.96
2019-01-17T06:05:04.096Z,993.92
2019-01-17T06:06:04.091Z,993.98
2019-01-17T06:07:04.107Z,993.89
2019-01-17T06:08:04.126Z,993.91
2019-01-17T06:09:04.204Z,993.89
2019-01-17T06:10:04.154Z,993.93
2019-01-17T06:11:04.185Z,993.91
2019-01-17T06:12:04.187Z,993.94
2019-01-17T06:13:04.188Z,993.85
2019-01-17T06:14:04.209Z,993.82
2019-01-17T06:15:04.223Z,993.92
2019-01-17T06:16:04.233Z,993.81
2019-01-17T06:17:04.255Z,993.80
2019-01-17T06:18:04.262Z,993.84
2019-01-17T06:19:04.393Z,993.77
2019-01-17T06:20:04.303Z,993.79
2019-01-17T06:21:04.323Z,993.73
2019-01-17T06:22:04.325Z,993.80
2019-01-17T06:23:04.367Z,993.77
2019-01-17T06:24:04.350Z,993.84
2019-01-17T06:25:04.383Z,993.81
2019-01-17T06:26:04.377Z,993.86
2019-01-17T06:27:04.400Z,993.80
2019-01-17T06:28:04.448Z,993.81
2019-01-17T06:29:04.438Z,993.81
2019-01-17T06:30:04.454Z,993.87
2019-01-17T06:31:04.457Z,993.87
2019-01-17T06:32:04.469Z,993.86
2019-01-17T06:33:04.483Z,993.84
2019-01-17T06:34:04.556Z,993.94
2019-01-17T06:35:04.511Z,993.84
2019-01-17T06:36:04.530Z,993.87
2019-01-17T06:37:04.541Z,993.93
2019-01-17T06:38:04.567Z,993.86
2019-01-17T06:39:04.571Z,993.83
2019-01-17T06:40:04.599Z,993.82
2019-01-17T06:41:04.619Z,993.82
2019-01-17T06:42:04.616Z,993.90
2019-01-17T06:43:04.629Z,993.91
2019-01-17T06:44:04.704Z,993.88
2019-01-17T06:45:04.660Z,993.83
2019-01-17T06:46:04.686Z,993.80
2019-01-17T06:47:04.696Z,993.89
2019-01-17T06:48:04.714Z,993.84
2019-01-17T06:49:04.726Z,993.85
2019-01-17T06:50:04.737Z,993.88
2019-01-17T06:51:04.756Z,993.80
2019-01-17T06:52:04.828Z,993.88
2019-01-17T06:53:04.796Z,993.80
2019-01-17T06:54:04.853Z,993.85
2019-01-17T06:55:04.819Z,993.82
2019-01-17T06:56:04.822Z,993.85
2019-01-17T06:57:04.845Z,993.97
2019-01-17T06:58:04.865Z,993.83
2019-01-17T06:59:04.909Z,993.78
2019-01-17T07:00:04.943Z,993.84
2019-01-17T07:01:04.890Z,993.90
2019-01-17T07:02:04.910Z,993.83
2019-01-17T07:03:04.925Z,993.81
2019-01-17T07:04:04.983Z,993.91
2019-01-17T07:05:04.959Z,993.78
2019-01-17T07:06:04.968Z,993.75
2019-01-17T07:07:04.984Z,993.81
2019-01-17T07:08:05.045Z,993.81
2019-01-17T07:09:05.025Z,993.78
2019-01-17T07:10:05.027Z,993.74
2019-01-17T07:11:05.041Z,993.75
2019-01-17T07:12:05.077Z,993.72
2019-01-17T07:13:05.096Z,993.72
2019-01-17T07:14:05.084Z,993.76
2019-01-17T07:15:05.107Z,993.74
2019-01-17T07:16:05.205Z,993.73
2019-01-17T07:17:05.134Z,993.71
2019-01-17T07:18:05.145Z,993.64
2019-01-17T07:19:05.193Z,993.78
2019-01-17T07:20:05.176Z,993.81
2019-01-17T07:21:05.255Z,993.78
2019-01-17T07:22:05.202Z,993.78
2019-01-17T07:23:05.222Z,993.76
2019-01-17T07:24:05.229Z,993.74
2019-01-17T07:25:05.249Z,993.74
2019-01-17T07:26:05.276Z,993.75
2019-01-17T07:27:05.277Z,993.82
2019-01-17T07:28:05.285Z,993.75
2019-01-17T07:29:05.345Z,993.79
2019-01-17T07:30:05.324Z,993.75
2019-01-17T07:31:05.356Z,993.78
2019-01-17T07:32:05.353Z,993.75
2019-01-17T07:33:05.365Z,993.87
2019-01-17T07:34:05.381Z,993.79
2019-01-17T07:35:05.390Z,993.89
2019-01-17T07:36:05.572Z,993.82
2019-01-17T07:37:05.430Z,993.84
2019-01-17T07:38:05.435Z,993.91
2019-01-17T07:40:05.467Z,993.87
2019-01-17T07:41:05.479Z,993.86
2019-01-17T07:42:05.494Z,993.87
2019-01-17T07:43:05.539Z,993.93
2019-01-17T07:44:05.523Z,993.99
2019-01-17T07:45:05.535Z,993.95
2019-01-17T07:46:05.561Z,994.00
2019-01-17T07:47:05.569Z,993.98
2019-01-17T07:48:05.588Z,993.93
2019-01-17T07:49:05.616Z,993.94
2019-01-17T07:50:05.623Z,993.90
2019-01-17T07:51:05.624Z,993.93
2019-01-17T07:52:05.636Z,993.93
2019-01-17T07:53:05.678Z,993.96
2019-01-17T07:54:05.672Z,993.92
2019-01-17T07:55:05.686Z,994.00
2019-01-17T07:56:05.706Z,993.90
2019-01-17T07:57:05.719Z,993.87
2019-01-17T07:58:05.729Z,994.00
2019-01-17T07:59:05.779Z,993.92
2019-01-17T08:00:05.768Z,993.99
2019-01-17T08:01:05.767Z,993.91
2019-01-17T08:02:05.799Z,993.99
2019-01-17T08:03:05.808Z,993.96
2019-01-17T08:04:05.815Z,993.90
2019-01-17T08:05:05.830Z,993.94
2019-01-17T08:06:05.856Z,993.97
2019-01-17T08:07:05.859Z,994.01
2019-01-17T08:08:05.880Z,994.02
2019-01-17T08:09:05.886Z,994.03
2019-01-17T08:10:05.900Z,994.00
2019-01-17T08:11:05.942Z,993.98
2019-01-17T08:12:05.930Z,993.98
2019-01-17T08:13:05.953Z,993.97
2019-01-17T08:14:05.961Z,993.91
2019-01-17T08:15:05.976Z,993.94
2019-01-17T08:16:05.990Z,993.95
2019-01-17T08:17:06.013Z,993.92
2019-01-17T08:19:06.037Z,994.03
2019-01-17T08:20:06.045Z,994.01
2019-01-17T08:21:06.171Z,994.02
2019-01-17T08:22:06.077Z,994.03
2019-01-17T08:23:06.104Z,994.00
2019-01-17T08:24:06.104Z,994.08
2019-01-17T08:25:06.124Z,994.04
2019-01-17T08:26:06.138Z,994.10
2019-01-17T08:27:06.149Z,994.14
2019-01-17T08:28:06.189Z,994.02
2019-01-17T08:29:06.190Z,994.07
2019-01-17T08:30:06.195Z,994.06
2019-01-17T08:31:06.210Z,994.07
2019-01-17T08:32:06.228Z,994.11
2019-01-17T08:33:06.247Z,994.12
2019-01-17T08:34:06.251Z,994.12
2019-01-17T08:35:06.270Z,994.14
2019-01-17T08:36:06.289Z,994.16
2019-01-17T08:37:06.301Z,994.17
2019-01-17T08:38:06.329Z,994.16
2019-01-17T08:39:06.338Z,994.15
2019-01-17T08:40:06.350Z,994.18
2019-01-17T08:41:06.510Z,994.13
2019-01-17T08:42:06.393Z,994.14
2019-01-17T08:43:06.396Z,994.12
2019-01-17T08:44:06.426Z,994.11
2019-01-17T08:45:06.411Z,994.19
2019-01-17T08:46:06.431Z,994.13
2019-01-17T08:47:06.439Z,994.14
2019-01-17T08:48:06.458Z,994.21
2019-01-17T08:49:06.474Z,994.16
2019-01-17T08:50:06.489Z,994.17
2019-01-17T08:51:06.645Z,994.20
2019-01-17T08:52:06.541Z,994.14
2019-01-17T08:53:06.541Z,994.20
2019-01-17T08:54:06.554Z,994.19
2019-01-17T08:55:06.577Z,994.18
2019-01-17T08:56:06.587Z,994.21
2019-01-17T08:57:06.589Z,994.24
2019-01-17T08:58:06.614Z,994.22
2019-01-17T08:59:06.621Z,994.19
2019-01-17T09:00:06.675Z,994.30
2019-01-17T09:01:06.671Z,994.27
2019-01-17T09:02:06.675Z,994.18
2019-01-17T09:03:06.689Z,994.19
2019-01-17T09:04:06.697Z,994.27
2019-01-17T09:05:06.712Z,994.25
2019-01-17T09:06:06.733Z,994.22
2019-01-17T09:07:06.746Z,994.23
2019-01-17T09:08:06.773Z,994.23
2019-01-17T09:09:06.772Z,994.23
2019-01-17T09:10:06.815Z,994.24
2019-01-17T09:11:06.804Z,994.30
2019-01-17T09:12:06.817Z,994.31
2019-01-17T09:13:06.829Z,994.28
2019-01-17T09:14:06.845Z,994.23
2019-01-17T09:15:06.876Z,994.28
2019-01-17T09:16:06.915Z,994.32
2019-01-17T09:17:06.885Z,994.25
2019-01-17T09:18:06.911Z,994.32
2019-01-17T09:19:06.918Z,994.32
2019-01-17T09:20:06.943Z,994.30
2019-01-17T09:21:06.948Z,994.34
2019-01-17T09:22:06.960Z,994.30
2019-01-17T09:23:06.971Z,994.29
2019-01-17T09:24:06.993Z,994.33
2019-01-17T09:25:07.003Z,994.38
2019-01-17T09:26:07.684Z,994.40
2019-01-17T09:27:07.034Z,994.37
2019-01-17T09:28:07.066Z,994.42
2019-01-17T09:29:07.063Z,994.41
2019-01-17T09:30:07.077Z,994.47
2019-01-17T09:31:07.091Z,994.48
2019-01-17T09:32:07.113Z,994.53
2019-01-17T09:33:07.122Z,994.58
2019-01-17T09:34:07.151Z,994.46
2019-01-17T09:35:07.156Z,994.55
2019-01-17T09:36:07.263Z,994.64
2019-01-17T09:37:07.181Z,994.57
2019-01-17T09:38:07.198Z,994.57
2019-01-17T09:39:07.219Z,994.57
2019-01-17T09:40:07.222Z,994.55
2019-01-17T09:41:07.238Z,994.67
2019-01-17T09:42:07.274Z,994.58
2019-01-17T09:43:07.268Z,994.62
2019-01-17T09:44:07.286Z,994.73
2019-01-17T09:45:07.306Z,994.73
2019-01-17T09:46:07.403Z,994.71
2019-01-17T09:47:07.348Z,994.78
2019-01-17T09:48:07.353Z,994.79
2019-01-17T09:49:07.368Z,994.68
2019-01-17T09:50:07.395Z,994.77
2019-01-17T09:51:07.427Z,994.78
2019-01-17T09:52:07.412Z,994.82
2019-01-17T09:53:07.426Z,994.73
2019-01-17T09:54:07.470Z,994.80
2019-01-17T09:55:07.459Z,994.77
2019-01-17T09:56:08.145Z,994.78
2019-01-17T09:57:07.477Z,994.74
2019-01-17T09:58:07.502Z,994.84
2019-01-17T09:59:07.519Z,994.86
2019-01-17T10:00:07.520Z,994.83
2019-01-17T10:01:07.576Z,994.80
2019-01-17T10:03:07.575Z,994.83
2019-01-17T10:04:07.584Z,994.86
2019-01-17T10:05:07.653Z,994.83
2019-01-17T10:06:07.618Z,994.94
2019-01-17T10:07:07.628Z,994.94
2019-01-17T10:08:07.637Z,994.95
2019-01-17T10:09:07.658Z,994.88
2019-01-17T10:10:07.671Z,994.96
2019-01-17T10:11:07.682Z,994.99
2019-01-17T10:12:07.713Z,994.97
2019-01-17T10:13:07.723Z,994.98
2019-01-17T10:14:07.756Z,995.00
2019-01-17T10:15:07.749Z,994.95
2019-01-17T10:16:07.762Z,995.08
2019-01-17T10:17:07.776Z,994.99
2019-01-17T10:18:07.794Z,995.06
2019-01-17T10:21:07.840Z,995.04
2019-01-17T10:22:07.849Z,994.93
2019-01-17T10:23:07.865Z,994.97
2019-01-17T10:24:07.881Z,995.09
2019-01-17T10:25:07.900Z,994.98
2019-01-17T10:26:07.939Z,994.98
2019-01-17T10:27:07.925Z,994.98
2019-01-17T10:28:07.943Z,995.04
2019-01-17T10:29:07.965Z,995.01
2019-01-17T10:30:07.979Z,995.00
2019-01-17T10:31:08.030Z,995.02
2019-01-17T10:32:08.009Z,995.13
2019-01-17T10:33:08.015Z,995.07
2019-01-17T10:34:08.041Z,995.13
2019-01-17T10:35:08.049Z,995.13
2019-01-17T10:36:08.075Z,995.18
2019-01-17T10:37:08.079Z,995.25
2019-01-17T10:38:08.104Z,995.18
2019-01-17T10:39:08.111Z,995.20
2019-01-17T10:40:08.129Z,995.15
2019-01-17T10:41:08.136Z,995.11
2019-01-17T10:42:08.152Z,995.18
2019-01-17T10:43:08.280Z,995.18
2019-01-17T10:44:08.185Z,995.15
2019-01-17T10:45:08.196Z,995.17
2019-01-17T10:46:08.211Z,995.20
2019-01-17T10:47:08.233Z,995.12
2019-01-17T10:48:08.247Z,995.15
2019-01-17T10:49:08.252Z,995.18
2019-01-17T10:50:08.273Z,995.17
2019-01-17T10:51:08.290Z,995.09
2019-01-17T10:52:08.297Z,995.14
2019-01-17T10:53:08.333Z,995.11
2019-01-17T10:54:08.334Z,995.12
2019-01-17T10:55:08.354Z,995.12
2019-01-17T10:56:08.357Z,995.17
2019-01-17T10:57:08.384Z,995.19
2019-01-17T10:58:08.394Z,995.25
2019-01-17T10:59:08.449Z,995.20
2019-01-17T11:00:08.420Z,995.25
2019-01-17T11:01:08.440Z,995.14
2019-01-17T11:03:08.799Z,995.23
2019-01-17T11:04:08.479Z,995.20
2019-01-17T11:05:08.506Z,995.26
2019-01-17T11:06:08.511Z,995.19
2019-01-17T11:07:08.524Z,995.29
2019-01-17T11:08:08.540Z,995.21
2019-01-17T11:09:08.562Z,995.16
2019-01-17T11:10:08.571Z,995.17
2019-01-17T11:11:08.592Z,995.13
2019-01-17T11:12:08.605Z,995.12
2019-01-17T11:13:08.739Z,995.09
2019-01-17T11:14:08.629Z,995.01
2019-01-17T11:15:08.645Z,995.04
2019-01-17T11:16:08.682Z,995.03
2019-01-17T11:17:08.694Z,995.00
2019-01-17T11:18:08.744Z,994.93
2019-01-17T11:19:08.715Z,994.93
2019-01-17T11:20:08.715Z,994.97
2019-01-17T11:21:08.738Z,994.99
2019-01-17T11:22:08.753Z,994.95
2019-01-17T11:23:08.835Z,995.02
2019-01-17T11:24:08.783Z,995.03
2019-01-17T11:25:08.798Z,995.01
2019-01-17T11:26:08.817Z,994.94
2019-01-17T11:27:08.832Z,994.91
2019-01-17T11:28:08.843Z,994.99
2019-01-17T11:29:08.855Z,994.96
2019-01-17T11:30:08.897Z,994.98
2019-01-17T11:31:08.911Z,994.93
2019-01-17T11:32:08.939Z,994.90
2019-01-17T11:33:08.927Z,994.92
2019-01-17T11:34:08.956Z,994.98
2019-01-17T11:35:08.951Z,994.99
2019-01-17T11:36:08.957Z,994.94
2019-01-17T11:37:08.975Z,994.99
2019-01-17T11:39:09.004Z,995.11
2019-01-17T11:40:09.030Z,994.99
2019-01-17T11:41:09.045Z,995.06
2019-01-17T11:42:09.057Z,994.96
2019-01-17T11:43:09.070Z,995.00
2019-01-17T11:44:09.083Z,994.92
2019-01-17T11:45:09.106Z,994.96
2019-01-17T11:46:09.108Z,995.04
2019-01-17T11:47:09.135Z,994.96
2019-01-17T11:48:09.224Z,995.02
2019-01-17T11:49:09.160Z,994.98
2019-01-17T11:50:09.213Z,995.00
2019-01-17T11:51:09.183Z,994.99
2019-01-17T11:52:09.208Z,994.90
2019-01-17T11:53:09.221Z,994.94
2019-01-17T11:54:09.242Z,994.88
2019-01-17T11:55:09.272Z,994.88
2019-01-17T11:56:09.260Z,994.87
2019-01-17T11:57:09.281Z,994.87
2019-01-17T11:58:09.344Z,994.85
2019-01-17T11:59:09.330Z,994.80
2019-01-17T12:00:09.315Z,994.79
2019-01-17T12:01:09.340Z,994.82
2019-01-17T12:02:09.350Z,994.77
2019-01-17T12:03:10.391Z,994.84
2019-01-17T12:04:09.389Z,994.74
2019-01-17T12:05:09.395Z,994.78
2019-01-17T12:06:09.420Z,994.74
2019-01-17T12:07:09.431Z,994.70
2019-01-17T12:08:09.530Z,994.73
2019-01-17T12:09:09.462Z,994.80
2019-01-17T12:10:09.474Z,994.76
2019-01-17T12:11:09.494Z,994.69
2019-01-17T12:12:09.501Z,994.64
2019-01-17T12:13:09.521Z,994.72
2019-01-17T12:14:09.533Z,994.65
2019-01-17T12:15:09.554Z,994.70
2019-01-17T12:16:09.565Z,994.73
2019-01-17T12:17:09.579Z,994.64
2019-01-17T12:18:09.678Z,994.75
2019-01-17T12:19:09.608Z,994.69
2019-01-17T12:20:09.677Z,994.63
2019-01-17T12:21:09.650Z,994.72
2019-01-17T12:22:09.662Z,994.85
2019-01-17T12:23:09.685Z,994.70
2019-01-17T12:24:09.690Z,994.70
2019-01-17T12:25:09.695Z,994.81
2019-01-17T12:26:09.715Z,994.69
2019-01-17T12:27:09.728Z,994.61
2019-01-17T12:28:09.754Z,994.81
2019-01-17T12:29:09.763Z,994.75
2019-01-17T12:30:09.891Z,994.70
2019-01-17T12:31:09.794Z,994.72
2019-01-17T12:32:09.814Z,994.71
2019-01-17T12:33:09.884Z,994.69
2019-01-17T12:34:09.839Z,994.68
2019-01-17T12:35:09.855Z,994.69
2019-01-17T12:36:09.861Z,994.67
2019-01-17T12:37:09.882Z,994.68
2019-01-17T12:38:09.898Z,994.69
2019-01-17T12:39:09.908Z,994.70
2019-01-17T12:40:10.029Z,994.57
2019-01-17T12:41:10.014Z,994.65
2019-01-17T12:42:09.956Z,994.63
2019-01-17T12:43:10.018Z,994.63
2019-01-17T12:44:09.982Z,994.60
2019-01-17T12:45:09.998Z,994.66
2019-01-17T12:46:10.014Z,994.56
2019-01-17T12:47:10.047Z,994.62
2019-01-17T12:48:10.041Z,994.70
2019-01-17T12:49:10.058Z,994.61
2019-01-17T12:50:10.143Z,994.63
2019-01-17T12:51:10.089Z,994.63
2019-01-17T12:52:10.104Z,994.56
2019-01-17T12:53:10.139Z,994.54
2019-01-17T12:54:10.147Z,994.51